メインページ
METAR-TAF:

METAR-TAF

空港 :

ゴアベイ, オンタリオ州, カナダ

緯度: 45-53N, 経度: 082-34W, 海抜: 193m

現時点の気象観測

当レポートは15分前の23:00(UTC)に作成
西/北西の風 10kt、最大21ktの突風を伴う
気温 -8°C
湿度 67%
気圧 1018 hPa
視程: 14.5km
高度17000ftの雲は散在している
高度19000ftの雲は散在している

METAR: CYZE 162300Z AUTO 30010G21KT 9SM SCT170 SCT190 M08/M13 A3005 RMK SLP190

時間: 18:15 (23:15 UTC)

予報

当レポートは3時間37分前の19:38(UTC)に作成
予報は16日の 20時(UTC)から 16日の 23時(UTC)まで有効
西/北西の風 15kt、最大25ktの突風を伴う
視程: 10km
高度4000ftの千切れ雲あり
16日の 2200時(UTC)から
西/北西の風 12kt
視程: 10km
高度3000ftの雲は散在している

TAF: CYZE 161938Z 1620/1623 30015G25KT P6SM BKN040 FM162200 30012KT P6SM SCT030 RMK FCST BASED ON AUTO OBS. NXT FCST WILL BE ISSUED AT 171045Z

4,000以上の空港の気象観測と天気予報(METAR報とTAF報)

利用可能な観測所は地図上に黄色い丸と赤い丸で示す。

丸の上にカーソルを重ねると観測所名を参照できる。

次にクリックすると気象観測と天気予報を参照できる。

マップの切り替え:黒色「×」印の緑ボタンをクリックして拡大、「-」印の緑ボタンをクリックして縮小、緑色の三角印をクリックして隣りの地図に切り替え


METAR-TAF: